sensor_id;sensor_type;location;lat;lon;timestamp;pressure;altitude;pressure_sealevel;temperature;humidity
49979;BME280;35869;50.990;6.962;2022-12-18T00:02:07;102607.50;;;-4.86;100.00
49979;BME280;35869;50.990;6.962;2022-12-18T00:07:07;102614.41;;;-4.99;100.00
49979;BME280;35869;50.990;6.962;2022-12-18T00:12:08;102614.31;;;-4.85;100.00
49979;BME280;35869;50.990;6.962;2022-12-18T00:17:08;102619.38;;;-4.85;100.00
49979;BME280;35869;50.990;6.962;2022-12-18T00:22:08;102618.41;;;-4.87;100.00
49979;BME280;35869;50.990;6.962;2022-12-18T00:27:08;102621.69;;;-4.89;100.00
49979;BME280;35869;50.990;6.962;2022-12-18T00:32:08;102621.44;;;-4.94;100.00
49979;BME280;35869;50.990;6.962;2022-12-18T00:37:09;102631.75;;;-4.91;100.00
49979;BME280;35869;50.990;6.962;2022-12-18T00:42:10;102635.88;;;-4.93;100.00
49979;BME280;35869;50.990;6.962;2022-12-18T00:47:10;102621.69;;;-4.89;100.00
49979;BME280;35869;50.990;6.962;2022-12-18T00:52:10;102613.22;;;-4.90;100.00
49979;BME280;35869;50.990;6.962;2022-12-18T00:57:10;102607.09;;;-4.93;100.00
49979;BME280;35869;50.990;6.962;2022-12-18T01:02:13;102609.56;;;-4.95;100.00
49979;BME280;35869;50.990;6.962;2022-12-18T01:07:13;102624.84;;;-4.93;100.00
49979;BME280;35869;50.990;6.962;2022-12-18T01:12:14;102596.91;;;-4.95;100.00
49979;BME280;35869;50.990;6.962;2022-12-18T01:17:14;102604.44;;;-4.96;100.00
49979;BME280;35869;50.990;6.962;2022-12-18T01:22:14;102607.78;;;-4.97;100.00
49979;BME280;35869;50.990;6.962;2022-12-18T01:27:14;102606.91;;;-4.98;100.00
49979;BME280;35869;50.990;6.962;2022-12-18T01:32:14;102610.63;;;-5.07;100.00
49979;BME280;35869;50.990;6.962;2022-12-18T01:37:15;102618.53;;;-5.01;100.00
49979;BME280;35869;50.990;6.962;2022-12-18T01:42:15;102611.81;;;-5.01;100.00
49979;BME280;35869;50.990;6.962;2022-12-18T01:52:26;102605.88;;;-5.01;100.00
49979;BME280;35869;50.990;6.962;2022-12-18T01:57:28;102602.69;;;-4.97;100.00
49979;BME280;35869;50.990;6.962;2022-12-18T02:02:28;102603.47;;;-4.98;100.00
49979;BME280;35869;50.990;6.962;2022-12-18T02:18:27;102608.03;;;-5.09;100.00
49979;BME280;35869;50.990;6.962;2022-12-18T02:28:53;102607.88;;;-5.12;100.00
49979;BME280;35869;50.990;6.962;2022-12-18T02:33:56;102617.63;;;-5.03;100.00
49979;BME280;35869;50.990;6.962;2022-12-18T02:38:59;102597.47;;;-5.00;100.00
49979;BME280;35869;50.990;6.962;2022-12-18T02:44:07;102597.72;;;-5.12;100.00
49979;BME280;35869;50.990;6.962;2022-12-18T02:54:57;102581.16;;;-5.05;100.00
49979;BME280;35869;50.990;6.962;2022-12-18T03:00:06;102583.63;;;-5.07;100.00
49979;BME280;35869;50.990;6.962;2022-12-18T03:05:15;102599.47;;;-5.11;100.00
49979;BME280;35869;50.990;6.962;2022-12-18T03:10:20;102588.84;;;-5.04;100.00
49979;BME280;35869;50.990;6.962;2022-12-18T03:15:45;102584.91;;;-5.15;100.00
49979;BME280;35869;50.990;6.962;2022-12-18T03:20:48;102580.44;;;-5.03;100.00
49979;BME280;35869;50.990;6.962;2022-12-18T03:25:52;102575.84;;;-5.10;100.00
49979;BME280;35869;50.990;6.962;2022-12-18T03:30:57;102571.81;;;-5.06;100.00
49979;BME280;35869;50.990;6.962;2022-12-18T03:35:58;102549.44;;;-5.15;100.00
49979;BME280;35869;50.990;6.962;2022-12-18T03:41:18;102557.63;;;-5.03;100.00
49979;BME280;35869;50.990;6.962;2022-12-18T03:46:30;102565.41;;;-5.16;100.00
49979;BME280;35869;50.990;6.962;2022-12-18T03:51:42;102562.97;;;-5.15;100.00
49979;BME280;35869;50.990;6.962;2022-12-18T03:56:49;102571.38;;;-5.16;100.00
49979;BME280;35869;50.990;6.962;2022-12-18T04:01:52;102557.91;;;-5.15;100.00
49979;BME280;35869;50.990;6.962;2022-12-18T04:06:55;102558.78;;;-5.14;100.00
49979;BME280;35869;50.990;6.962;2022-12-18T04:11:56;102549.91;;;-5.22;100.00
49979;BME280;35869;50.990;6.962;2022-12-18T04:16:56;102547.16;;;-5.27;100.00
49979;BME280;35869;50.990;6.962;2022-12-18T04:21:56;102539.75;;;-5.22;100.00
49979;BME280;35869;50.990;6.962;2022-12-18T04:26:57;102553.91;;;-5.27;100.00
49979;BME280;35869;50.990;6.962;2022-12-18T04:31:57;102553.91;;;-5.27;100.00
49979;BME280;35869;50.990;6.962;2022-12-18T04:36:57;102555.47;;;-5.29;100.00
49979;BME280;35869;50.990;6.962;2022-12-18T04:42:00;102554.66;;;-5.28;100.00
49979;BME280;35869;50.990;6.962;2022-12-18T04:47:00;102555.78;;;-5.23;100.00
49979;BME280;35869;50.990;6.962;2022-12-18T04:52:00;102552.53;;;-5.21;100.00
49979;BME280;35869;50.990;6.962;2022-12-18T04:57:01;102544.63;;;-5.27;100.00
49979;BME280;35869;50.990;6.962;2022-12-18T05:02:01;102542.00;;;-5.28;100.00
49979;BME280;35869;50.990;6.962;2022-12-18T05:07:01;102544.09;;;-5.38;100.00
49979;BME280;35869;50.990;6.962;2022-12-18T05:12:01;102542.56;;;-5.34;100.00
49979;BME280;35869;50.990;6.962;2022-12-18T05:17:02;102533.94;;;-5.38;100.00
49979;BME280;35869;50.990;6.962;2022-12-18T05:22:02;102535.69;;;-5.37;100.00
49979;BME280;35869;50.990;6.962;2022-12-18T05:27:02;102531.41;;;-5.38;100.00
49979;BME280;35869;50.990;6.962;2022-12-18T05:32:03;102530.69;;;-5.35;100.00
49979;BME280;35869;50.990;6.962;2022-12-18T05:37:03;102539.69;;;-5.24;100.00
49979;BME280;35869;50.990;6.962;2022-12-18T05:42:03;102546.94;;;-5.31;100.00
49979;BME280;35869;50.990;6.962;2022-12-18T05:47:03;102556.38;;;-5.45;100.00
49979;BME280;35869;50.990;6.962;2022-12-18T05:52:04;102562.53;;;-5.40;100.00
49979;BME280;35869;50.990;6.962;2022-12-18T05:57:04;102568.38;;;-5.41;100.00
49979;BME280;35869;50.990;6.962;2022-12-18T06:02:04;102571.72;;;-5.42;100.00
49979;BME280;35869;50.990;6.962;2022-12-18T06:07:04;102577.72;;;-5.40;100.00
49979;BME280;35869;50.990;6.962;2022-12-18T06:12:05;102581.78;;;-5.44;100.00
49979;BME280;35869;50.990;6.962;2022-12-18T06:17:05;102591.13;;;-5.43;100.00
49979;BME280;35869;50.990;6.962;2022-12-18T06:22:05;102596.19;;;-5.43;100.00
49979;BME280;35869;50.990;6.962;2022-12-18T06:27:05;102606.16;;;-5.46;100.00
49979;BME280;35869;50.990;6.962;2022-12-18T06:32:06;102600.22;;;-5.46;100.00
49979;BME280;35869;50.990;6.962;2022-12-18T06:37:06;102597.63;;;-5.48;100.00
49979;BME280;35869;50.990;6.962;2022-12-18T06:42:06;102587.66;;;-5.45;100.00
49979;BME280;35869;50.990;6.962;2022-12-18T06:47:06;102581.78;;;-5.44;100.00
49979;BME280;35869;50.990;6.962;2022-12-18T06:52:07;102594.47;;;-5.44;100.00
49979;BME280;35869;50.990;6.962;2022-12-18T06:57:07;102582.91;;;-5.39;100.00
49979;BME280;35869;50.990;6.962;2022-12-18T07:02:11;102579.09;;;-5.47;100.00
49979;BME280;35869;50.990;6.962;2022-12-18T07:07:11;102580.81;;;-5.46;100.00
49979;BME280;35869;50.990;6.962;2022-12-18T07:12:12;102570.69;;;-5.46;100.00
49979;BME280;35869;50.990;6.962;2022-12-18T07:17:13;102580.81;;;-5.46;100.00
49979;BME280;35869;50.990;6.962;2022-12-18T07:22:13;102575.63;;;-5.49;100.00
49979;BME280;35869;50.990;6.962;2022-12-18T07:27:13;102574.31;;;-5.41;100.00
49979;BME280;35869;50.990;6.962;2022-12-18T07:32:13;102566.91;;;-5.54;100.00
49979;BME280;35869;50.990;6.962;2022-12-18T07:37:14;102561.59;;;-5.42;100.00
49979;BME280;35869;50.990;6.962;2022-12-18T07:42:14;102567.38;;;-5.45;100.00
49979;BME280;35869;50.990;6.962;2022-12-18T07:47:14;102561.81;;;-5.38;100.00
49979;BME280;35869;50.990;6.962;2022-12-18T07:52:15;102561.03;;;-5.37;100.00
49979;BME280;35869;50.990;6.962;2022-12-18T07:57:16;102568.94;;;-5.47;100.00
49979;BME280;35869;50.990;6.962;2022-12-18T08:02:16;102562.31;;;-5.45;100.00
49979;BME280;35869;50.990;6.962;2022-12-18T08:07:16;102549.97;;;-5.39;100.00
49979;BME280;35869;50.990;6.962;2022-12-18T08:12:16;102540.81;;;-5.35;100.00
49979;BME280;35869;50.990;6.962;2022-12-18T08:17:17;102542.44;;;-5.37;100.00
49979;BME280;35869;50.990;6.962;2022-12-18T08:22:17;102536.63;;;-5.34;100.00
49979;BME280;35869;50.990;6.962;2022-12-18T08:27:17;102512.25;;;-5.32;100.00
49979;BME280;35869;50.990;6.962;2022-12-18T08:32:17;102503.78;;;-5.33;100.00
49979;BME280;35869;50.990;6.962;2022-12-18T08:37:18;102504.16;;;-5.25;100.00
49979;BME280;35869;50.990;6.962;2022-12-18T08:42:18;102504.28;;;-5.22;100.00
49979;BME280;35869;50.990;6.962;2022-12-18T08:47:18;102506.03;;;-5.21;100.00
49979;BME280;35869;50.990;6.962;2022-12-18T08:52:18;102510.31;;;-5.20;100.00
49979;BME280;35869;50.990;6.962;2022-12-18T08:57:19;102498.22;;;-5.08;100.00
49979;BME280;35869;50.990;6.962;2022-12-18T09:02:19;102494.16;;;-5.04;100.00
49979;BME280;35869;50.990;6.962;2022-12-18T09:07:19;102500.31;;;-4.99;100.00
49979;BME280;35869;50.990;6.962;2022-12-18T09:12:19;102501.75;;;-4.87;100.00
49979;BME280;35869;50.990;6.962;2022-12-18T09:17:20;102500.03;;;-4.88;100.00
49979;BME280;35869;50.990;6.962;2022-12-18T09:22:22;102499.53;;;-4.80;100.00
49979;BME280;35869;50.990;6.962;2022-12-18T09:27:22;102486.94;;;-4.79;100.00
49979;BME280;35869;50.990;6.962;2022-12-18T09:32:22;102484.22;;;-4.64;100.00
49979;BME280;35869;50.990;6.962;2022-12-18T09:37:23;102474.44;;;-4.57;100.00
49979;BME280;35869;50.990;6.962;2022-12-18T09:42:23;102461.00;;;-4.54;100.00
49979;BME280;35869;50.990;6.962;2022-12-18T09:47:28;102464.91;;;-4.43;100.00
49979;BME280;35869;50.990;6.962;2022-12-18T09:52:35;102456.16;;;-4.30;100.00
49979;BME280;35869;50.990;6.962;2022-12-18T09:57:42;102445.69;;;-4.18;100.00
49979;BME280;35869;50.990;6.962;2022-12-18T10:02:46;102458.19;;;-4.04;100.00
49979;BME280;35869;50.990;6.962;2022-12-18T10:07:57;102437.31;;;-3.96;100.00
49979;BME280;35869;50.990;6.962;2022-12-18T10:13:12;102431.38;;;-3.76;100.00
49979;BME280;35869;50.990;6.962;2022-12-18T10:29:12;102411.16;;;-3.33;99.09
49979;BME280;35869;50.990;6.962;2022-12-18T10:34:13;102413.22;;;-3.23;99.07
49979;BME280;35869;50.990;6.962;2022-12-18T10:39:20;102425.03;;;-3.25;98.78
49979;BME280;35869;50.990;6.962;2022-12-18T10:44:27;102397.66;;;-3.09;98.74
49979;BME280;35869;50.990;6.962;2022-12-18T10:49:32;102395.34;;;-3.03;99.39
49979;BME280;35869;50.990;6.962;2022-12-18T10:54:34;102392.22;;;-2.96;99.55
49979;BME280;35869;50.990;6.962;2022-12-18T10:59:50;102389.13;;;-2.87;98.47
49979;BME280;35869;50.990;6.962;2022-12-18T11:04:51;102383.53;;;-2.79;98.71
49979;BME280;35869;50.990;6.962;2022-12-18T11:10:01;102377.25;;;-2.64;97.73
49979;BME280;35869;50.990;6.962;2022-12-18T11:15:02;102360.72;;;-2.53;98.18
49979;BME280;35869;50.990;6.962;2022-12-18T11:20:05;102374.69;;;-2.42;96.37
49979;BME280;35869;50.990;6.962;2022-12-18T11:25:18;102366.41;;;-2.36;95.24
49979;BME280;35869;50.990;6.962;2022-12-18T11:30:23;102359.69;;;-2.34;95.29
49979;BME280;35869;50.990;6.962;2022-12-18T11:35:51;102353.19;;;-2.26;96.36
49979;BME280;35869;50.990;6.962;2022-12-18T11:46:08;102342.53;;;-2.15;96.20
49979;BME280;35869;50.990;6.962;2022-12-18T11:51:15;102328.16;;;-2.12;94.17
49979;BME280;35869;50.990;6.962;2022-12-18T11:56:27;102323.16;;;-2.11;94.75
49979;BME280;35869;50.990;6.962;2022-12-18T12:12:06;102306.56;;;-1.98;92.77
49979;BME280;35869;50.990;6.962;2022-12-18T12:17:25;102309.53;;;-1.86;93.60
49979;BME280;35869;50.990;6.962;2022-12-18T12:23:00;102310.38;;;-1.85;94.13
49979;BME280;35869;50.990;6.962;2022-12-18T12:38:31;102280.06;;;-1.76;93.96
49979;BME280;35869;50.990;6.962;2022-12-18T12:43:44;102280.91;;;-1.77;94.36
49979;BME280;35869;50.990;6.962;2022-12-18T12:49:04;102285.13;;;-1.78;94.13
49979;BME280;35869;50.990;6.962;2022-12-18T12:54:20;102280.16;;;-1.75;93.11
49979;BME280;35869;50.990;6.962;2022-12-18T13:15:43;102293.25;;;-1.63;93.77
49979;BME280;35869;50.990;6.962;2022-12-18T13:31:08;102283.34;;;-1.53;94.99
49979;BME280;35869;50.990;6.962;2022-12-18T13:36:30;102275.84;;;-1.49;91.51
49979;BME280;35869;50.990;6.962;2022-12-18T13:41:30;102263.03;;;-1.50;93.27
49979;BME280;35869;50.990;6.962;2022-12-18T13:46:47;102256.22;;;-1.51;93.96
49979;BME280;35869;50.990;6.962;2022-12-18T13:51:54;102255.75;;;-1.38;93.37
49979;BME280;35869;50.990;6.962;2022-12-18T13:56:54;102242.13;;;-1.39;93.10
49979;BME280;35869;50.990;6.962;2022-12-18T14:01:58;102247.13;;;-1.42;92.83
49979;BME280;35869;50.990;6.962;2022-12-18T14:07:03;102242.28;;;-1.34;91.88
49979;BME280;35869;50.990;6.962;2022-12-18T14:12:04;102231.75;;;-1.45;92.65
49979;BME280;35869;50.990;6.962;2022-12-18T14:17:09;102229.88;;;-1.52;92.54
49979;BME280;35869;50.990;6.962;2022-12-18T14:22:18;102224.88;;;-1.47;93.40
49979;BME280;35869;50.990;6.962;2022-12-18T14:27:24;102216.13;;;-1.57;92.59
49979;BME280;35869;50.990;6.962;2022-12-18T14:32:25;102220.47;;;-1.53;93.33
49979;BME280;35869;50.990;6.962;2022-12-18T14:37:26;102208.78;;;-1.46;92.51
49979;BME280;35869;50.990;6.962;2022-12-18T14:42:27;102200.38;;;-1.42;92.58
49979;BME280;35869;50.990;6.962;2022-12-18T14:47:28;102203.50;;;-1.52;93.02
49979;BME280;35869;50.990;6.962;2022-12-18T14:52:31;102193.03;;;-1.62;92.05
49979;BME280;35869;50.990;6.962;2022-12-18T14:57:36;102189.28;;;-1.73;91.84
49979;BME280;35869;50.990;6.962;2022-12-18T15:02:37;102182.91;;;-1.58;91.64
49979;BME280;35869;50.990;6.962;2022-12-18T15:07:42;102191.69;;;-1.77;91.82
49979;BME280;35869;50.990;6.962;2022-12-18T15:17:56;102181.75;;;-1.70;91.50
49979;BME280;35869;50.990;6.962;2022-12-18T15:22:57;102179.97;;;-1.72;91.61
49979;BME280;35869;50.990;6.962;2022-12-18T15:27:57;102167.47;;;-1.93;89.91
49979;BME280;35869;50.990;6.962;2022-12-18T15:33:24;102182.75;;;-1.93;91.00
49979;BME280;35869;50.990;6.962;2022-12-18T15:38:26;102181.81;;;-1.95;90.29
49979;BME280;35869;50.990;6.962;2022-12-18T15:43:29;102181.78;;;-1.97;90.39
49979;BME280;35869;50.990;6.962;2022-12-18T15:48:29;102170.06;;;-1.92;91.14
49979;BME280;35869;50.990;6.962;2022-12-18T15:53:32;102165.50;;;-2.02;90.69
49979;BME280;35869;50.990;6.962;2022-12-18T15:58:33;102170.69;;;-1.99;91.85
49979;BME280;35869;50.990;6.962;2022-12-18T16:03:33;102173.16;;;-2.00;91.09
49979;BME280;35869;50.990;6.962;2022-12-18T16:08:33;102165.16;;;-2.12;90.93
49979;BME280;35869;50.990;6.962;2022-12-18T16:13:33;102181.44;;;-2.07;90.77
49979;BME280;35869;50.990;6.962;2022-12-18T16:18:34;102165.97;;;-2.13;90.96
49979;BME280;35869;50.990;6.962;2022-12-18T16:23:34;102162.34;;;-2.22;91.38
49979;BME280;35869;50.990;6.962;2022-12-18T16:28:34;102166.28;;;-2.04;92.08
49979;BME280;35869;50.990;6.962;2022-12-18T16:33:34;102154.88;;;-2.16;92.19
49979;BME280;35869;50.990;6.962;2022-12-18T16:38:34;102167.31;;;-2.25;92.47
49979;BME280;35869;50.990;6.962;2022-12-18T16:43:35;102181.63;;;-2.01;92.63
49979;BME280;35869;50.990;6.962;2022-12-18T16:48:35;102166.94;;;-2.10;92.39
49979;BME280;35869;50.990;6.962;2022-12-18T16:53:35;102161.25;;;-2.01;92.64
49979;BME280;35869;50.990;6.962;2022-12-18T16:58:35;102151.47;;;-2.16;93.28
49979;BME280;35869;50.990;6.962;2022-12-18T17:03:36;102145.56;;;-2.15;93.37
49979;BME280;35869;50.990;6.962;2022-12-18T17:08:36;102160.16;;;-2.09;93.00
49979;BME280;35869;50.990;6.962;2022-12-18T17:13:36;102166.81;;;-2.15;93.64
49979;BME280;35869;50.990;6.962;2022-12-18T17:18:36;102153.16;;;-2.17;92.77
49979;BME280;35869;50.990;6.962;2022-12-18T17:23:37;102163.94;;;-2.24;93.23
49979;BME280;35869;50.990;6.962;2022-12-18T17:28:38;102160.88;;;-2.13;93.31
49979;BME280;35869;50.990;6.962;2022-12-18T17:33:39;102149.72;;;-2.17;93.79
49979;BME280;35869;50.990;6.962;2022-12-18T17:38:39;102131.66;;;-2.25;93.17
49979;BME280;35869;50.990;6.962;2022-12-18T17:43:39;102115.63;;;-2.22;93.03
49979;BME280;35869;50.990;6.962;2022-12-18T17:48:40;102135.16;;;-2.23;92.88
49979;BME280;35869;50.990;6.962;2022-12-18T17:53:40;102140.31;;;-2.20;93.22
49979;BME280;35869;50.990;6.962;2022-12-18T17:58:41;102151.03;;;-2.30;92.61
49979;BME280;35869;50.990;6.962;2022-12-18T18:03:42;102158.00;;;-2.24;92.75
49979;BME280;35869;50.990;6.962;2022-12-18T18:08:42;102153.75;;;-2.24;93.20
49979;BME280;35869;50.990;6.962;2022-12-18T18:13:43;102154.63;;;-2.23;93.37
49979;BME280;35869;50.990;6.962;2022-12-18T18:18:43;102142.69;;;-2.26;93.75
49979;BME280;35869;50.990;6.962;2022-12-18T18:23:43;102155.91;;;-2.10;94.05
49979;BME280;35869;50.990;6.962;2022-12-18T18:28:43;102163.00;;;-2.27;93.68
49979;BME280;35869;50.990;6.962;2022-12-18T18:33:43;102169.19;;;-2.19;92.86
49979;BME280;35869;50.990;6.962;2022-12-18T18:38:44;102168.44;;;-2.17;93.61
49979;BME280;35869;50.990;6.962;2022-12-18T18:43:44;102161.59;;;-2.18;93.30
49979;BME280;35869;50.990;6.962;2022-12-18T18:48:45;102175.13;;;-2.20;93.67
49979;BME280;35869;50.990;6.962;2022-12-18T18:53:46;102174.22;;;-2.22;93.31
49979;BME280;35869;50.990;6.962;2022-12-18T18:58:47;102160.72;;;-2.18;94.02
49979;BME280;35869;50.990;6.962;2022-12-18T19:03:48;102149.84;;;-2.14;94.24
49979;BME280;35869;50.990;6.962;2022-12-18T19:08:49;102154.75;;;-2.20;93.77
49979;BME280;35869;50.990;6.962;2022-12-18T19:13:49;102143.16;;;-2.10;93.59
49979;BME280;35869;50.990;6.962;2022-12-18T19:18:49;102135.38;;;-2.15;93.93
49979;BME280;35869;50.990;6.962;2022-12-18T19:23:50;102128.66;;;-2.11;93.35
49979;BME280;35869;50.990;6.962;2022-12-18T19:28:50;102142.16;;;-2.16;93.08
49979;BME280;35869;50.990;6.962;2022-12-18T19:33:50;102140.69;;;-2.07;93.84
49979;BME280;35869;50.990;6.962;2022-12-18T19:38:52;102148.34;;;-2.07;93.32
49979;BME280;35869;50.990;6.962;2022-12-18T19:43:53;102138.16;;;-2.07;94.21
49979;BME280;35869;50.990;6.962;2022-12-18T19:48:53;102117.53;;;-2.15;93.18
49979;BME280;35869;50.990;6.962;2022-12-18T19:53:54;102125.59;;;-2.01;93.93
49979;BME280;35869;50.990;6.962;2022-12-18T19:58:55;102140.00;;;-2.02;93.89
49979;BME280;35869;50.990;6.962;2022-12-18T20:03:55;102124.91;;;-1.96;94.24
49979;BME280;35869;50.990;6.962;2022-12-18T20:08:59;102132.50;;;-1.97;93.85
49979;BME280;35869;50.990;6.962;2022-12-18T20:13:59;102127.47;;;-1.96;93.35
49979;BME280;35869;50.990;6.962;2022-12-18T20:18:59;102142.78;;;-1.94;94.31
49979;BME280;35869;50.990;6.962;2022-12-18T20:24:00;102133.06;;;-2.07;93.51
49979;BME280;35869;50.990;6.962;2022-12-18T20:29:00;102128.28;;;-1.97;93.96
49979;BME280;35869;50.990;6.962;2022-12-18T20:34:00;102125.13;;;-1.88;93.28
49979;BME280;35869;50.990;6.962;2022-12-18T20:39:02;102131.91;;;-1.89;94.00
49979;BME280;35869;50.990;6.962;2022-12-18T20:44:02;102142.34;;;-1.81;93.85
49979;BME280;35869;50.990;6.962;2022-12-18T20:49:03;102141.75;;;-1.71;94.22
49979;BME280;35869;50.990;6.962;2022-12-18T20:54:03;102150.41;;;-1.66;95.23
49979;BME280;35869;50.990;6.962;2022-12-18T20:59:03;102149.38;;;-1.72;94.57
49979;BME280;35869;50.990;6.962;2022-12-18T21:04:04;102164.09;;;-1.64;94.91
49979;BME280;35869;50.990;6.962;2022-12-18T21:09:04;102142.72;;;-1.67;95.12
49979;BME280;35869;50.990;6.962;2022-12-18T21:19:17;102131.13;;;-1.57;95.04
49979;BME280;35869;50.990;6.962;2022-12-18T21:24:19;102126.72;;;-1.63;94.66
49979;BME280;35869;50.990;6.962;2022-12-18T21:29:23;102124.34;;;-1.57;94.67
49979;BME280;35869;50.990;6.962;2022-12-18T21:34:26;102126.91;;;-1.55;94.63
49979;BME280;35869;50.990;6.962;2022-12-18T21:39:28;102124.69;;;-1.43;94.73
49979;BME280;35869;50.990;6.962;2022-12-18T21:44:29;102115.34;;;-1.44;96.06
49979;BME280;35869;50.990;6.962;2022-12-18T21:49:29;102117.00;;;-1.46;96.80
49979;BME280;35869;50.990;6.962;2022-12-18T21:54:30;102118.88;;;-1.39;97.94
49979;BME280;35869;50.990;6.962;2022-12-18T21:59:38;102110.56;;;-1.32;99.42
49979;BME280;35869;50.990;6.962;2022-12-18T22:04:40;102095.38;;;-1.27;98.83
49979;BME280;35869;50.990;6.962;2022-12-18T22:09:40;102081.84;;;-1.25;99.86
49979;BME280;35869;50.990;6.962;2022-12-18T22:14:41;102073.50;;;-1.18;99.73
49979;BME280;35869;50.990;6.962;2022-12-18T22:19:41;102062.53;;;-1.15;100.00
49979;BME280;35869;50.990;6.962;2022-12-18T22:24:41;102051.47;;;-1.16;100.00
49979;BME280;35869;50.990;6.962;2022-12-18T22:29:41;102043.06;;;-1.12;100.00
49979;BME280;35869;50.990;6.962;2022-12-18T22:34:42;102042.50;;;-1.00;100.00
49979;BME280;35869;50.990;6.962;2022-12-18T22:39:42;102041.47;;;-1.07;100.00
49979;BME280;35869;50.990;6.962;2022-12-18T22:44:42;102037.47;;;-0.97;100.00
49979;BME280;35869;50.990;6.962;2022-12-18T22:49:42;102018.19;;;-0.86;100.00
49979;BME280;35869;50.990;6.962;2022-12-18T22:54:42;102027.41;;;-0.91;100.00
49979;BME280;35869;50.990;6.962;2022-12-18T22:59:43;102021.47;;;-0.90;100.00
49979;BME280;35869;50.990;6.962;2022-12-18T23:04:43;102018.94;;;-0.88;100.00
49979;BME280;35869;50.990;6.962;2022-12-18T23:09:43;102004.47;;;-0.89;100.00
49979;BME280;35869;50.990;6.962;2022-12-18T23:14:44;101998.63;;;-0.85;100.00
49979;BME280;35869;50.990;6.962;2022-12-18T23:19:44;101983.34;;;-0.84;100.00
49979;BME280;35869;50.990;6.962;2022-12-18T23:24:45;101981.88;;;-0.72;100.00
49979;BME280;35869;50.990;6.962;2022-12-18T23:29:45;101975.16;;;-0.69;100.00
49979;BME280;35869;50.990;6.962;2022-12-18T23:34:45;101970.91;;;-0.70;100.00
49979;BME280;35869;50.990;6.962;2022-12-18T23:39:45;101965.00;;;-0.66;100.00
49979;BME280;35869;50.990;6.962;2022-12-18T23:44:46;101959.88;;;-0.67;100.00
49979;BME280;35869;50.990;6.962;2022-12-18T23:49:46;101947.13;;;-0.66;100.00
49979;BME280;35869;50.990;6.962;2022-12-18T23:54:46;101945.41;;;-0.68;100.00
49979;BME280;35869;50.990;6.962;2022-12-18T23:59:46;101928.53;;;-0.60;100.00
